sensor_id;sensor_type;location;lat;lon;timestamp;P1;durP1;ratioP1;P2;durP2;ratioP2
19802;SDS011;66074;50.764;6.090;2023-05-07T00:00:22;1.40;;;1.17;;
19802;SDS011;66074;50.764;6.090;2023-05-07T00:02:47;1.88;;;1.10;;
19802;SDS011;66074;50.764;6.090;2023-05-07T00:05:13;2.70;;;1.48;;
19802;SDS011;66074;50.764;6.090;2023-05-07T00:07:41;1.73;;;1.08;;
19802;SDS011;66074;50.764;6.090;2023-05-07T00:10:07;1.98;;;1.17;;
19802;SDS011;66074;50.764;6.090;2023-05-07T00:12:33;2.47;;;1.33;;
19802;SDS011;66074;50.764;6.090;2023-05-07T00:14:59;1.90;;;1.35;;
19802;SDS011;66074;50.764;6.090;2023-05-07T00:17:26;1.77;;;1.60;;
19802;SDS011;66074;50.764;6.090;2023-05-07T00:19:52;3.05;;;1.10;;
19802;SDS011;66074;50.764;6.090;2023-05-07T00:22:17;1.42;;;1.15;;
19802;SDS011;66074;50.764;6.090;2023-05-07T00:24:43;1.83;;;1.13;;
19802;SDS011;66074;50.764;6.090;2023-05-07T00:27:08;2.78;;;1.00;;
19802;SDS011;66074;50.764;6.090;2023-05-07T00:29:34;1.65;;;0.88;;
19802;SDS011;66074;50.764;6.090;2023-05-07T00:32:00;2.00;;;1.75;;
19802;SDS011;66074;50.764;6.090;2023-05-07T00:34:26;2.38;;;1.20;;
19802;SDS011;66074;50.764;6.090;2023-05-07T00:36:52;2.40;;;1.20;;
19802;SDS011;66074;50.764;6.090;2023-05-07T00:39:18;2.15;;;1.00;;
19802;SDS011;66074;50.764;6.090;2023-05-07T00:41:43;1.33;;;1.08;;
19802;SDS011;66074;50.764;6.090;2023-05-07T00:44:09;1.25;;;1.05;;
19802;SDS011;66074;50.764;6.090;2023-05-07T00:46:35;1.33;;;1.02;;
19802;SDS011;66074;50.764;6.090;2023-05-07T00:49:01;2.08;;;1.20;;
19802;SDS011;66074;50.764;6.090;2023-05-07T00:51:26;1.15;;;0.95;;
19802;SDS011;66074;50.764;6.090;2023-05-07T00:53:53;1.10;;;1.00;;
19802;SDS011;66074;50.764;6.090;2023-05-07T00:56:20;2.40;;;1.08;;
19802;SDS011;66074;50.764;6.090;2023-05-07T00:58:46;1.58;;;0.85;;
19802;SDS011;66074;50.764;6.090;2023-05-07T01:01:12;2.17;;;1.15;;
19802;SDS011;66074;50.764;6.090;2023-05-07T01:03:38;2.30;;;1.00;;
19802;SDS011;66074;50.764;6.090;2023-05-07T01:06:03;3.80;;;1.00;;
19802;SDS011;66074;50.764;6.090;2023-05-07T01:08:31;1.95;;;1.38;;
19802;SDS011;66074;50.764;6.090;2023-05-07T01:10:57;2.35;;;1.10;;
19802;SDS011;66074;50.764;6.090;2023-05-07T01:13:24;2.08;;;1.13;;
19802;SDS011;66074;50.764;6.090;2023-05-07T01:15:50;1.95;;;1.73;;
19802;SDS011;66074;50.764;6.090;2023-05-07T01:18:16;2.50;;;1.25;;
19802;SDS011;66074;50.764;6.090;2023-05-07T01:20:42;2.10;;;0.98;;
19802;SDS011;66074;50.764;6.090;2023-05-07T01:23:07;2.25;;;1.30;;
19802;SDS011;66074;50.764;6.090;2023-05-07T01:25:35;1.33;;;0.82;;
19802;SDS011;66074;50.764;6.090;2023-05-07T01:28:01;3.33;;;1.10;;
19802;SDS011;66074;50.764;6.090;2023-05-07T01:30:27;2.00;;;0.90;;
19802;SDS011;66074;50.764;6.090;2023-05-07T01:32:56;2.45;;;0.90;;
19802;SDS011;66074;50.764;6.090;2023-05-07T01:35:29;2.22;;;1.20;;
19802;SDS011;66074;50.764;6.090;2023-05-07T01:37:59;1.77;;;1.15;;
19802;SDS011;66074;50.764;6.090;2023-05-07T01:40:25;5.05;;;1.52;;
19802;SDS011;66074;50.764;6.090;2023-05-07T01:42:52;1.90;;;1.20;;
19802;SDS011;66074;50.764;6.090;2023-05-07T01:45:18;2.90;;;1.55;;
19802;SDS011;66074;50.764;6.090;2023-05-07T01:47:44;2.63;;;2.22;;
19802;SDS011;66074;50.764;6.090;2023-05-07T01:50:10;5.05;;;1.85;;
19802;SDS011;66074;50.764;6.090;2023-05-07T01:52:40;2.88;;;1.83;;
19802;SDS011;66074;50.764;6.090;2023-05-07T01:55:06;1.73;;;1.63;;
19802;SDS011;66074;50.764;6.090;2023-05-07T01:57:32;3.03;;;1.90;;
19802;SDS011;66074;50.764;6.090;2023-05-07T01:59:57;2.65;;;2.05;;
19802;SDS011;66074;50.764;6.090;2023-05-07T02:02:23;2.45;;;1.98;;
19802;SDS011;66074;50.764;6.090;2023-05-07T02:04:48;2.00;;;1.77;;
19802;SDS011;66074;50.764;6.090;2023-05-07T02:07:14;2.03;;;1.55;;
19802;SDS011;66074;50.764;6.090;2023-05-07T02:09:40;2.33;;;1.55;;
19802;SDS011;66074;50.764;6.090;2023-05-07T02:12:05;1.80;;;1.50;;
19802;SDS011;66074;50.764;6.090;2023-05-07T02:14:31;3.22;;;2.30;;
19802;SDS011;66074;50.764;6.090;2023-05-07T02:16:57;1.70;;;1.60;;
19802;SDS011;66074;50.764;6.090;2023-05-07T02:19:22;2.85;;;1.55;;
19802;SDS011;66074;50.764;6.090;2023-05-07T02:21:48;2.72;;;1.33;;
19802;SDS011;66074;50.764;6.090;2023-05-07T02:24:13;2.35;;;1.60;;
19802;SDS011;66074;50.764;6.090;2023-05-07T02:26:39;2.28;;;1.65;;
19802;SDS011;66074;50.764;6.090;2023-05-07T02:29:06;1.75;;;1.20;;
19802;SDS011;66074;50.764;6.090;2023-05-07T02:31:32;3.70;;;1.52;;
19802;SDS011;66074;50.764;6.090;2023-05-07T02:33:58;1.67;;;1.10;;
19802;SDS011;66074;50.764;6.090;2023-05-07T02:36:25;2.88;;;1.25;;
19802;SDS011;66074;50.764;6.090;2023-05-07T02:38:51;1.33;;;1.15;;
19802;SDS011;66074;50.764;6.090;2023-05-07T02:41:17;1.83;;;1.23;;
19802;SDS011;66074;50.764;6.090;2023-05-07T02:43:43;1.90;;;1.25;;
19802;SDS011;66074;50.764;6.090;2023-05-07T02:46:08;2.92;;;1.17;;
19802;SDS011;66074;50.764;6.090;2023-05-07T02:48:34;1.60;;;1.00;;
19802;SDS011;66074;50.764;6.090;2023-05-07T02:51:00;2.53;;;1.30;;
19802;SDS011;66074;50.764;6.090;2023-05-07T02:53:27;2.00;;;1.20;;
19802;SDS011;66074;50.764;6.090;2023-05-07T02:55:55;2.30;;;1.10;;
19802;SDS011;66074;50.764;6.090;2023-05-07T02:58:21;1.52;;;1.20;;
19802;SDS011;66074;50.764;6.090;2023-05-07T03:00:47;2.08;;;1.30;;
19802;SDS011;66074;50.764;6.090;2023-05-07T03:03:13;1.35;;;1.20;;
19802;SDS011;66074;50.764;6.090;2023-05-07T03:05:42;3.53;;;1.52;;
19802;SDS011;66074;50.764;6.090;2023-05-07T03:08:08;3.35;;;2.05;;
19802;SDS011;66074;50.764;6.090;2023-05-07T03:10:34;2.22;;;1.58;;
19802;SDS011;66074;50.764;6.090;2023-05-07T03:13:01;2.65;;;1.17;;
19802;SDS011;66074;50.764;6.090;2023-05-07T03:15:27;1.10;;;1.00;;
19802;SDS011;66074;50.764;6.090;2023-05-07T03:17:52;2.92;;;1.33;;
19802;SDS011;66074;50.764;6.090;2023-05-07T03:20:18;1.98;;;1.10;;
19802;SDS011;66074;50.764;6.090;2023-05-07T03:22:44;1.83;;;1.20;;
19802;SDS011;66074;50.764;6.090;2023-05-07T03:25:10;1.95;;;1.30;;
19802;SDS011;66074;50.764;6.090;2023-05-07T03:27:35;2.50;;;1.00;;
19802;SDS011;66074;50.764;6.090;2023-05-07T03:30:02;1.88;;;1.42;;
19802;SDS011;66074;50.764;6.090;2023-05-07T03:32:27;1.20;;;0.80;;
19802;SDS011;66074;50.764;6.090;2023-05-07T03:34:53;1.10;;;1.00;;
19802;SDS011;66074;50.764;6.090;2023-05-07T03:37:19;2.03;;;1.20;;
19802;SDS011;66074;50.764;6.090;2023-05-07T03:39:44;3.95;;;1.40;;
19802;SDS011;66074;50.764;6.090;2023-05-07T03:42:10;2.17;;;1.17;;
19802;SDS011;66074;50.764;6.090;2023-05-07T03:44:35;1.83;;;1.10;;
19802;SDS011;66074;50.764;6.090;2023-05-07T03:47:01;1.27;;;1.00;;
19802;SDS011;66074;50.764;6.090;2023-05-07T03:49:27;1.48;;;1.10;;
19802;SDS011;66074;50.764;6.090;2023-05-07T03:51:53;1.58;;;1.00;;
19802;SDS011;66074;50.764;6.090;2023-05-07T03:54:19;1.83;;;1.60;;
19802;SDS011;66074;50.764;6.090;2023-05-07T03:56:44;3.78;;;2.88;;
19802;SDS011;66074;50.764;6.090;2023-05-07T03:59:10;4.00;;;1.35;;
19802;SDS011;66074;50.764;6.090;2023-05-07T04:01:37;1.75;;;1.40;;
19802;SDS011;66074;50.764;6.090;2023-05-07T04:04:03;1.70;;;1.25;;
19802;SDS011;66074;50.764;6.090;2023-05-07T04:06:29;2.92;;;1.27;;
19802;SDS011;66074;50.764;6.090;2023-05-07T04:08:55;3.92;;;1.35;;
19802;SDS011;66074;50.764;6.090;2023-05-07T04:11:21;2.67;;;1.25;;
19802;SDS011;66074;50.764;6.090;2023-05-07T04:13:46;2.15;;;1.15;;
19802;SDS011;66074;50.764;6.090;2023-05-07T04:16:12;2.00;;;1.00;;
19802;SDS011;66074;50.764;6.090;2023-05-07T04:18:38;2.13;;;1.92;;
19802;SDS011;66074;50.764;6.090;2023-05-07T04:21:03;2.05;;;1.85;;
19802;SDS011;66074;50.764;6.090;2023-05-07T04:23:29;2.03;;;1.30;;
19802;SDS011;66074;50.764;6.090;2023-05-07T04:25:55;3.33;;;1.20;;
19802;SDS011;66074;50.764;6.090;2023-05-07T04:28:22;1.85;;;1.42;;
19802;SDS011;66074;50.764;6.090;2023-05-07T04:30:49;1.35;;;1.00;;
19802;SDS011;66074;50.764;6.090;2023-05-07T04:33:14;1.50;;;1.17;;
19802;SDS011;66074;50.764;6.090;2023-05-07T04:35:43;5.18;;;1.40;;
19802;SDS011;66074;50.764;6.090;2023-05-07T04:38:08;2.67;;;1.08;;
19802;SDS011;66074;50.764;6.090;2023-05-07T04:40:35;3.13;;;1.50;;
19802;SDS011;66074;50.764;6.090;2023-05-07T04:43:01;1.75;;;1.40;;
19802;SDS011;66074;50.764;6.090;2023-05-07T04:45:26;1.85;;;1.40;;
19802;SDS011;66074;50.764;6.090;2023-05-07T04:47:52;2.10;;;1.38;;
19802;SDS011;66074;50.764;6.090;2023-05-07T04:50:17;2.05;;;1.70;;
19802;SDS011;66074;50.764;6.090;2023-05-07T04:52:44;3.03;;;1.60;;
19802;SDS011;66074;50.764;6.090;2023-05-07T04:55:10;1.27;;;1.17;;
19802;SDS011;66074;50.764;6.090;2023-05-07T04:57:36;1.55;;;1.27;;
19802;SDS011;66074;50.764;6.090;2023-05-07T05:00:04;2.83;;;1.40;;
19802;SDS011;66074;50.764;6.090;2023-05-07T05:02:30;5.22;;;1.67;;
19802;SDS011;66074;50.764;6.090;2023-05-07T05:04:56;1.42;;;1.27;;
19802;SDS011;66074;50.764;6.090;2023-05-07T05:07:22;1.40;;;1.13;;
19802;SDS011;66074;50.764;6.090;2023-05-07T05:09:47;2.03;;;1.52;;
19802;SDS011;66074;50.764;6.090;2023-05-07T05:12:13;1.55;;;1.23;;
19802;SDS011;66074;50.764;6.090;2023-05-07T05:14:38;1.10;;;1.00;;
19802;SDS011;66074;50.764;6.090;2023-05-07T05:17:04;1.70;;;1.10;;
19802;SDS011;66074;50.764;6.090;2023-05-07T05:19:30;3.88;;;1.40;;
19802;SDS011;66074;50.764;6.090;2023-05-07T05:21:55;2.55;;;1.00;;
19802;SDS011;66074;50.764;6.090;2023-05-07T05:24:21;1.23;;;1.10;;
19802;SDS011;66074;50.764;6.090;2023-05-07T05:26:47;2.72;;;1.17;;
19802;SDS011;66074;50.764;6.090;2023-05-07T05:29:12;1.00;;;0.85;;
19802;SDS011;66074;50.764;6.090;2023-05-07T05:31:38;1.65;;;1.27;;
19802;SDS011;66074;50.764;6.090;2023-05-07T05:34:03;2.35;;;1.40;;
19802;SDS011;66074;50.764;6.090;2023-05-07T05:36:29;1.60;;;1.20;;
19802;SDS011;66074;50.764;6.090;2023-05-07T05:38:55;1.48;;;1.20;;
19802;SDS011;66074;50.764;6.090;2023-05-07T05:41:21;1.83;;;1.20;;
19802;SDS011;66074;50.764;6.090;2023-05-07T05:43:46;1.33;;;1.23;;
19802;SDS011;66074;50.764;6.090;2023-05-07T05:46:13;1.48;;;1.27;;
19802;SDS011;66074;50.764;6.090;2023-05-07T05:48:40;2.88;;;1.42;;
19802;SDS011;66074;50.764;6.090;2023-05-07T05:51:05;2.35;;;1.10;;
19802;SDS011;66074;50.764;6.090;2023-05-07T05:53:31;1.63;;;1.10;;
19802;SDS011;66074;50.764;6.090;2023-05-07T05:55:56;1.98;;;1.10;;
19802;SDS011;66074;50.764;6.090;2023-05-07T05:58:22;2.30;;;1.20;;
19802;SDS011;66074;50.764;6.090;2023-05-07T06:00:48;2.40;;;1.48;;
19802;SDS011;66074;50.764;6.090;2023-05-07T06:03:16;2.15;;;1.17;;
19802;SDS011;66074;50.764;6.090;2023-05-07T06:05:41;2.17;;;1.45;;
19802;SDS011;66074;50.764;6.090;2023-05-07T06:08:07;2.03;;;1.25;;
19802;SDS011;66074;50.764;6.090;2023-05-07T06:10:33;1.20;;;1.10;;
19802;SDS011;66074;50.764;6.090;2023-05-07T06:12:58;2.50;;;1.38;;
19802;SDS011;66074;50.764;6.090;2023-05-07T06:15:24;2.47;;;1.40;;
19802;SDS011;66074;50.764;6.090;2023-05-07T06:17:50;2.42;;;1.20;;
19802;SDS011;66074;50.764;6.090;2023-05-07T06:20:15;1.42;;;1.20;;
19802;SDS011;66074;50.764;6.090;2023-05-07T06:22:41;1.73;;;1.25;;
19802;SDS011;66074;50.764;6.090;2023-05-07T06:25:07;1.90;;;1.40;;
19802;SDS011;66074;50.764;6.090;2023-05-07T06:27:33;1.40;;;1.20;;
19802;SDS011;66074;50.764;6.090;2023-05-07T06:29:58;2.78;;;1.67;;
19802;SDS011;66074;50.764;6.090;2023-05-07T06:32:24;1.50;;;1.05;;
19802;SDS011;66074;50.764;6.090;2023-05-07T06:34:49;1.25;;;1.00;;
19802;SDS011;66074;50.764;6.090;2023-05-07T06:37:15;1.85;;;1.25;;
19802;SDS011;66074;50.764;6.090;2023-05-07T06:39:41;2.22;;;1.15;;
19802;SDS011;66074;50.764;6.090;2023-05-07T06:42:06;1.38;;;1.20;;
19802;SDS011;66074;50.764;6.090;2023-05-07T06:44:32;2.67;;;1.45;;
19802;SDS011;66074;50.764;6.090;2023-05-07T06:46:58;2.03;;;1.33;;
19802;SDS011;66074;50.764;6.090;2023-05-07T06:49:23;1.42;;;1.20;;
19802;SDS011;66074;50.764;6.090;2023-05-07T06:51:49;1.65;;;1.50;;
19802;SDS011;66074;50.764;6.090;2023-05-07T06:54:15;2.03;;;1.25;;
19802;SDS011;66074;50.764;6.090;2023-05-07T06:56:40;2.85;;;1.30;;
19802;SDS011;66074;50.764;6.090;2023-05-07T06:59:06;1.70;;;1.58;;
19802;SDS011;66074;50.764;6.090;2023-05-07T07:01:32;1.60;;;1.30;;
19802;SDS011;66074;50.764;6.090;2023-05-07T07:03:58;1.73;;;1.48;;
19802;SDS011;66074;50.764;6.090;2023-05-07T07:06:23;2.13;;;1.30;;
19802;SDS011;66074;50.764;6.090;2023-05-07T07:08:50;3.08;;;1.45;;
19802;SDS011;66074;50.764;6.090;2023-05-07T07:11:16;2.80;;;1.27;;
19802;SDS011;66074;50.764;6.090;2023-05-07T07:13:41;1.83;;;1.17;;
19802;SDS011;66074;50.764;6.090;2023-05-07T07:16:08;2.38;;;1.20;;
19802;SDS011;66074;50.764;6.090;2023-05-07T07:18:34;2.92;;;1.20;;
19802;SDS011;66074;50.764;6.090;2023-05-07T07:21:00;2.88;;;1.15;;
19802;SDS011;66074;50.764;6.090;2023-05-07T07:23:26;1.83;;;1.40;;
19802;SDS011;66074;50.764;6.090;2023-05-07T07:25:52;2.08;;;0.90;;
19802;SDS011;66074;50.764;6.090;2023-05-07T07:28:17;2.38;;;1.13;;
19802;SDS011;66074;50.764;6.090;2023-05-07T07:30:45;2.40;;;1.50;;
19802;SDS011;66074;50.764;6.090;2023-05-07T07:33:11;1.67;;;1.02;;
19802;SDS011;66074;50.764;6.090;2023-05-07T07:35:37;1.02;;;0.88;;
19802;SDS011;66074;50.764;6.090;2023-05-07T07:38:02;1.27;;;0.90;;
19802;SDS011;66074;50.764;6.090;2023-05-07T07:40:28;1.88;;;0.70;;
19802;SDS011;66074;50.764;6.090;2023-05-07T07:42:54;2.03;;;1.17;;
19802;SDS011;66074;50.764;6.090;2023-05-07T07:45:20;2.03;;;0.95;;
19802;SDS011;66074;50.764;6.090;2023-05-07T07:47:46;2.40;;;1.33;;
19802;SDS011;66074;50.764;6.090;2023-05-07T07:50:12;3.85;;;1.60;;
19802;SDS011;66074;50.764;6.090;2023-05-07T07:52:38;4.60;;;1.33;;
19802;SDS011;66074;50.764;6.090;2023-05-07T07:55:10;4.85;;;1.25;;
19802;SDS011;66074;50.764;6.090;2023-05-07T07:57:38;1.80;;;1.00;;
19802;SDS011;66074;50.764;6.090;2023-05-07T08:00:04;3.30;;;1.02;;
19802;SDS011;66074;50.764;6.090;2023-05-07T08:02:32;1.67;;;0.90;;
19802;SDS011;66074;50.764;6.090;2023-05-07T08:04:57;3.15;;;1.10;;
19802;SDS011;66074;50.764;6.090;2023-05-07T08:07:23;1.88;;;1.10;;
19802;SDS011;66074;50.764;6.090;2023-05-07T08:09:49;1.23;;;0.80;;
19802;SDS011;66074;50.764;6.090;2023-05-07T08:12:15;1.15;;;0.60;;
19802;SDS011;66074;50.764;6.090;2023-05-07T08:14:40;2.15;;;0.88;;
19802;SDS011;66074;50.764;6.090;2023-05-07T08:17:06;1.02;;;0.80;;
19802;SDS011;66074;50.764;6.090;2023-05-07T08:19:34;1.40;;;0.70;;
19802;SDS011;66074;50.764;6.090;2023-05-07T08:22:00;1.52;;;1.02;;
19802;SDS011;66074;50.764;6.090;2023-05-07T08:24:26;1.73;;;0.80;;
19802;SDS011;66074;50.764;6.090;2023-05-07T08:26:54;2.30;;;0.60;;
19802;SDS011;66074;50.764;6.090;2023-05-07T08:29:20;1.08;;;0.82;;
19802;SDS011;66074;50.764;6.090;2023-05-07T08:31:46;0.85;;;0.68;;
19802;SDS011;66074;50.764;6.090;2023-05-07T08:34:11;2.78;;;0.88;;
19802;SDS011;66074;50.764;6.090;2023-05-07T08:36:37;1.80;;;1.00;;
19802;SDS011;66074;50.764;6.090;2023-05-07T08:39:03;2.85;;;1.33;;
19802;SDS011;66074;50.764;6.090;2023-05-07T08:41:29;1.13;;;0.80;;
19802;SDS011;66074;50.764;6.090;2023-05-07T08:43:58;2.45;;;0.88;;
19802;SDS011;66074;50.764;6.090;2023-05-07T08:46:29;2.35;;;0.90;;
19802;SDS011;66074;50.764;6.090;2023-05-07T08:48:56;2.85;;;1.20;;
19802;SDS011;66074;50.764;6.090;2023-05-07T08:51:22;1.63;;;0.93;;
19802;SDS011;66074;50.764;6.090;2023-05-07T08:53:48;2.25;;;1.00;;
19802;SDS011;66074;50.764;6.090;2023-05-07T08:56:15;1.88;;;0.80;;
19802;SDS011;66074;50.764;6.090;2023-05-07T08:58:44;1.42;;;0.93;;
19802;SDS011;66074;50.764;6.090;2023-05-07T09:01:12;1.10;;;0.80;;
19802;SDS011;66074;50.764;6.090;2023-05-07T09:03:39;1.13;;;0.98;;
19802;SDS011;66074;50.764;6.090;2023-05-07T09:06:06;0.98;;;0.70;;
19802;SDS011;66074;50.764;6.090;2023-05-07T09:08:33;1.98;;;0.90;;
19802;SDS011;66074;50.764;6.090;2023-05-07T09:11:00;1.67;;;1.10;;
19802;SDS011;66074;50.764;6.090;2023-05-07T09:13:29;3.15;;;1.10;;
19802;SDS011;66074;50.764;6.090;2023-05-07T09:15:55;2.65;;;1.08;;
19802;SDS011;66074;50.764;6.090;2023-05-07T09:18:23;1.40;;;0.90;;
19802;SDS011;66074;50.764;6.090;2023-05-07T09:20:54;1.80;;;1.40;;
19802;SDS011;66074;50.764;6.090;2023-05-07T09:23:20;2.05;;;1.10;;
19802;SDS011;66074;50.764;6.090;2023-05-07T09:25:47;2.25;;;0.80;;
19802;SDS011;66074;50.764;6.090;2023-05-07T09:28:15;4.07;;;1.02;;
19802;SDS011;66074;50.764;6.090;2023-05-07T09:30:44;1.00;;;0.77;;
19802;SDS011;66074;50.764;6.090;2023-05-07T09:33:10;3.35;;;1.27;;
19802;SDS011;66074;50.764;6.090;2023-05-07T09:35:35;1.15;;;0.80;;
19802;SDS011;66074;50.764;6.090;2023-05-07T09:38:03;2.85;;;1.17;;
19802;SDS011;66074;50.764;6.090;2023-05-07T09:40:29;1.85;;;1.10;;
19802;SDS011;66074;50.764;6.090;2023-05-07T09:42:56;0.95;;;0.80;;
19802;SDS011;66074;50.764;6.090;2023-05-07T09:45:42;2.38;;;1.10;;
19802;SDS011;66074;50.764;6.090;2023-05-07T09:48:08;1.42;;;0.80;;
19802;SDS011;66074;50.764;6.090;2023-05-07T09:50:40;1.35;;;1.00;;
19802;SDS011;66074;50.764;6.090;2023-05-07T09:53:14;2.25;;;1.25;;
19802;SDS011;66074;50.764;6.090;2023-05-07T09:55:41;1.00;;;0.90;;
19802;SDS011;66074;50.764;6.090;2023-05-07T09:58:07;1.05;;;0.73;;
19802;SDS011;66074;50.764;6.090;2023-05-07T10:00:34;2.85;;;0.80;;
19802;SDS011;66074;50.764;6.090;2023-05-07T10:03:01;1.73;;;0.95;;
19802;SDS011;66074;50.764;6.090;2023-05-07T10:05:27;2.67;;;0.80;;
19802;SDS011;66074;50.764;6.090;2023-05-07T10:07:54;1.27;;;0.85;;
19802;SDS011;66074;50.764;6.090;2023-05-07T10:10:21;2.08;;;1.02;;
19802;SDS011;66074;50.764;6.090;2023-05-07T10:12:48;1.13;;;0.90;;
19802;SDS011;66074;50.764;6.090;2023-05-07T10:15:15;2.20;;;1.08;;
19802;SDS011;66074;50.764;6.090;2023-05-07T10:17:42;2.75;;;1.83;;
19802;SDS011;66074;50.764;6.090;2023-05-07T10:20:08;2.88;;;1.25;;
19802;SDS011;66074;50.764;6.090;2023-05-07T10:22:38;1.67;;;0.98;;
19802;SDS011;66074;50.764;6.090;2023-05-07T10:25:09;3.05;;;1.25;;
19802;SDS011;66074;50.764;6.090;2023-05-07T10:27:53;1.23;;;0.88;;
19802;SDS011;66074;50.764;6.090;2023-05-07T10:32:51;1.35;;;0.80;;
19802;SDS011;66074;50.764;6.090;2023-05-07T10:35:22;2.55;;;0.90;;
19802;SDS011;66074;50.764;6.090;2023-05-07T10:37:50;1.95;;;0.90;;
19802;SDS011;66074;50.764;6.090;2023-05-07T10:40:16;1.65;;;0.80;;
19802;SDS011;66074;50.764;6.090;2023-05-07T10:42:56;1.58;;;1.00;;
19802;SDS011;66074;50.764;6.090;2023-05-07T10:45:24;3.10;;;1.33;;
19802;SDS011;66074;50.764;6.090;2023-05-07T10:48:05;1.08;;;0.93;;
19802;SDS011;66074;50.764;6.090;2023-05-07T10:50:38;2.42;;;1.13;;
19802;SDS011;66074;50.764;6.090;2023-05-07T10:53:20;1.73;;;0.90;;
19802;SDS011;66074;50.764;6.090;2023-05-07T10:55:46;1.45;;;0.90;;
19802;SDS011;66074;50.764;6.090;2023-05-07T10:58:32;1.58;;;0.82;;
19802;SDS011;66074;50.764;6.090;2023-05-07T11:01:00;2.00;;;1.05;;
19802;SDS011;66074;50.764;6.090;2023-05-07T11:03:27;1.55;;;0.70;;
19802;SDS011;66074;50.764;6.090;2023-05-07T11:06:09;1.52;;;0.98;;
19802;SDS011;66074;50.764;6.090;2023-05-07T11:11:18;2.90;;;1.17;;
19802;SDS011;66074;50.764;6.090;2023-05-07T11:13:45;2.47;;;0.82;;
19802;SDS011;66074;50.764;6.090;2023-05-07T11:16:19;1.10;;;0.90;;
19802;SDS011;66074;50.764;6.090;2023-05-07T11:18:49;3.22;;;1.15;;
19802;SDS011;66074;50.764;6.090;2023-05-07T11:21:37;1.90;;;1.20;;
19802;SDS011;66074;50.764;6.090;2023-05-07T11:24:06;1.48;;;0.90;;
19802;SDS011;66074;50.764;6.090;2023-05-07T11:26:46;1.50;;;0.93;;
19802;SDS011;66074;50.764;6.090;2023-05-07T11:29:16;1.00;;;0.90;;
19802;SDS011;66074;50.764;6.090;2023-05-07T11:31:43;1.58;;;0.98;;
19802;SDS011;66074;50.764;6.090;2023-05-07T11:34:13;2.05;;;1.23;;
19802;SDS011;66074;50.764;6.090;2023-05-07T11:36:41;1.92;;;0.90;;
19802;SDS011;66074;50.764;6.090;2023-05-07T11:39:24;0.82;;;0.80;;
19802;SDS011;66074;50.764;6.090;2023-05-07T11:41:53;1.48;;;1.02;;
19802;SDS011;66074;50.764;6.090;2023-05-07T11:44:19;2.95;;;1.25;;
19802;SDS011;66074;50.764;6.090;2023-05-07T11:46:45;1.23;;;1.00;;
19802;SDS011;66074;50.764;6.090;2023-05-07T11:49:10;2.33;;;1.25;;
19802;SDS011;66074;50.764;6.090;2023-05-07T11:51:36;3.45;;;1.67;;
19802;SDS011;66074;50.764;6.090;2023-05-07T11:54:03;3.67;;;2.40;;
19802;SDS011;66074;50.764;6.090;2023-05-07T11:56:33;5.30;;;2.97;;
19802;SDS011;66074;50.764;6.090;2023-05-07T11:59:00;2.47;;;1.20;;
19802;SDS011;66074;50.764;6.090;2023-05-07T12:01:26;2.33;;;1.77;;
19802;SDS011;66074;50.764;6.090;2023-05-07T12:03:51;1.75;;;1.35;;
19802;SDS011;66074;50.764;6.090;2023-05-07T12:06:17;3.15;;;1.20;;
19802;SDS011;66074;50.764;6.090;2023-05-07T12:08:44;3.47;;;2.28;;
19802;SDS011;66074;50.764;6.090;2023-05-07T12:11:13;2.67;;;1.92;;
19802;SDS011;66074;50.764;6.090;2023-05-07T12:13:47;2.47;;;2.00;;
19802;SDS011;66074;50.764;6.090;2023-05-07T12:16:13;4.15;;;2.85;;
19802;SDS011;66074;50.764;6.090;2023-05-07T12:18:39;5.65;;;3.80;;
19802;SDS011;66074;50.764;6.090;2023-05-07T12:21:06;5.43;;;3.60;;
19802;SDS011;66074;50.764;6.090;2023-05-07T12:23:33;4.70;;;3.33;;
19802;SDS011;66074;50.764;6.090;2023-05-07T12:25:59;5.78;;;3.47;;
19802;SDS011;66074;50.764;6.090;2023-05-07T12:28:25;6.43;;;4.30;;
19802;SDS011;66074;50.764;6.090;2023-05-07T12:30:51;4.03;;;3.50;;
19802;SDS011;66074;50.764;6.090;2023-05-07T12:33:18;6.03;;;4.10;;
19802;SDS011;66074;50.764;6.090;2023-05-07T12:35:47;5.50;;;4.00;;
19802;SDS011;66074;50.764;6.090;2023-05-07T12:38:13;4.13;;;3.72;;
19802;SDS011;66074;50.764;6.090;2023-05-07T12:40:44;8.13;;;4.13;;
19802;SDS011;66074;50.764;6.090;2023-05-07T12:43:15;4.45;;;3.33;;
19802;SDS011;66074;50.764;6.090;2023-05-07T12:45:46;4.93;;;4.13;;
19802;SDS011;66074;50.764;6.090;2023-05-07T12:48:13;5.25;;;4.38;;
19802;SDS011;66074;50.764;6.090;2023-05-07T12:50:39;4.60;;;3.83;;
19802;SDS011;66074;50.764;6.090;2023-05-07T12:53:05;3.95;;;3.40;;
19802;SDS011;66074;50.764;6.090;2023-05-07T12:55:39;4.30;;;3.78;;
19802;SDS011;66074;50.764;6.090;2023-05-07T12:58:25;4.53;;;3.55;;
19802;SDS011;66074;50.764;6.090;2023-05-07T13:00:53;4.82;;;3.70;;
19802;SDS011;66074;50.764;6.090;2023-05-07T13:03:23;5.50;;;4.18;;
19802;SDS011;66074;50.764;6.090;2023-05-07T13:05:50;4.30;;;3.60;;
19802;SDS011;66074;50.764;6.090;2023-05-07T13:08:23;6.80;;;4.20;;
19802;SDS011;66074;50.764;6.090;2023-05-07T13:10:53;4.22;;;3.35;;
19802;SDS011;66074;50.764;6.090;2023-05-07T13:13:19;4.70;;;3.60;;
19802;SDS011;66074;50.764;6.090;2023-05-07T13:15:46;7.97;;;3.90;;
19802;SDS011;66074;50.764;6.090;2023-05-07T13:18:12;4.43;;;3.45;;
19802;SDS011;66074;50.764;6.090;2023-05-07T13:20:38;4.85;;;4.30;;
19802;SDS011;66074;50.764;6.090;2023-05-07T13:23:04;7.32;;;3.78;;
19802;SDS011;66074;50.764;6.090;2023-05-07T13:25:29;4.35;;;3.72;;
19802;SDS011;66074;50.764;6.090;2023-05-07T13:27:59;5.00;;;3.47;;
19802;SDS011;66074;50.764;6.090;2023-05-07T13:30:25;4.90;;;3.15;;
19802;SDS011;66074;50.764;6.090;2023-05-07T13:32:52;3.60;;;3.20;;
19802;SDS011;66074;50.764;6.090;2023-05-07T13:35:20;4.03;;;3.10;;
19802;SDS011;66074;50.764;6.090;2023-05-07T13:37:46;3.38;;;3.08;;
19802;SDS011;66074;50.764;6.090;2023-05-07T13:40:13;3.25;;;2.95;;
19802;SDS011;66074;50.764;6.090;2023-05-07T13:42:38;5.38;;;3.35;;
19802;SDS011;66074;50.764;6.090;2023-05-07T13:45:04;4.75;;;3.90;;
19802;SDS011;66074;50.764;6.090;2023-05-07T13:47:30;4.45;;;3.35;;
19802;SDS011;66074;50.764;6.090;2023-05-07T13:49:56;7.22;;;3.55;;
19802;SDS011;66074;50.764;6.090;2023-05-07T13:52:22;5.00;;;3.47;;
19802;SDS011;66074;50.764;6.090;2023-05-07T13:54:47;4.13;;;3.70;;
19802;SDS011;66074;50.764;6.090;2023-05-07T13:57:13;3.70;;;3.10;;
19802;SDS011;66074;50.764;6.090;2023-05-07T13:59:39;3.72;;;3.08;;
19802;SDS011;66074;50.764;6.090;2023-05-07T14:02:05;3.42;;;3.10;;
19802;SDS011;66074;50.764;6.090;2023-05-07T14:04:31;2.60;;;2.38;;
19802;SDS011;66074;50.764;6.090;2023-05-07T14:06:57;4.38;;;2.75;;
19802;SDS011;66074;50.764;6.090;2023-05-07T14:09:23;4.45;;;3.30;;
19802;SDS011;66074;50.764;6.090;2023-05-07T14:11:49;4.65;;;3.40;;
19802;SDS011;66074;50.764;6.090;2023-05-07T14:14:18;3.22;;;2.92;;
19802;SDS011;66074;50.764;6.090;2023-05-07T14:16:49;3.80;;;3.30;;
19802;SDS011;66074;50.764;6.090;2023-05-07T14:19:15;3.30;;;2.80;;
19802;SDS011;66074;50.764;6.090;2023-05-07T14:21:41;3.40;;;3.10;;
19802;SDS011;66074;50.764;6.090;2023-05-07T14:24:07;3.85;;;3.50;;
19802;SDS011;66074;50.764;6.090;2023-05-07T14:26:35;4.40;;;2.85;;
19802;SDS011;66074;50.764;6.090;2023-05-07T14:29:01;2.65;;;2.45;;
19802;SDS011;66074;50.764;6.090;2023-05-07T14:31:28;2.92;;;2.60;;
19802;SDS011;66074;50.764;6.090;2023-05-07T14:33:54;2.90;;;2.08;;
19802;SDS011;66074;50.764;6.090;2023-05-07T14:36:19;4.15;;;2.00;;
19802;SDS011;66074;50.764;6.090;2023-05-07T14:38:46;4.28;;;2.30;;
19802;SDS011;66074;50.764;6.090;2023-05-07T14:41:12;2.38;;;1.75;;
19802;SDS011;66074;50.764;6.090;2023-05-07T14:43:38;1.98;;;1.80;;
19802;SDS011;66074;50.764;6.090;2023-05-07T14:46:06;1.95;;;1.75;;
19802;SDS011;66074;50.764;6.090;2023-05-07T14:48:32;2.47;;;2.00;;
19802;SDS011;66074;50.764;6.090;2023-05-07T14:50:57;3.95;;;2.17;;